createdAt,value
2019-03-25T00:00:47.080Z,6.52
2019-03-25T00:01:55.652Z,5.98
2019-03-25T00:03:02.906Z,5.56
2019-03-25T00:04:09.583Z,5.15
2019-03-25T00:05:16.845Z,5.01
2019-03-25T00:06:24.589Z,5.27
2019-03-25T00:07:31.918Z,5.73
2019-03-25T00:08:38.664Z,6.12
2019-03-25T00:09:46.787Z,6.48
2019-03-25T00:10:53.601Z,6.74
2019-03-25T00:12:00.537Z,6.59
2019-03-25T00:13:08.176Z,6.26
2019-03-25T00:14:14.945Z,5.84
2019-03-25T00:15:24.123Z,5.44
2019-03-25T00:16:31.165Z,5.12
2019-03-25T00:17:37.771Z,5.08
2019-03-25T00:18:44.544Z,5.40
2019-03-25T00:19:51.670Z,5.86
2019-03-25T00:20:58.153Z,6.31
2019-03-25T00:22:06.410Z,6.68
2019-03-25T00:23:14.270Z,6.85
2019-03-25T00:24:21.857Z,6.64
2019-03-25T00:25:31.531Z,6.22
2019-03-25T00:26:38.065Z,5.70
2019-03-25T00:27:45.028Z,5.24
2019-03-25T00:28:51.739Z,4.98
2019-03-25T00:29:59.625Z,5.18
2019-03-25T00:31:06.905Z,5.54
2019-03-25T00:32:13.255Z,5.94
2019-03-25T00:33:21.290Z,6.30
2019-03-25T00:34:29.823Z,6.50
2019-03-25T00:35:36.435Z,6.26
2019-03-25T00:36:44.385Z,5.86
2019-03-25T00:37:51.011Z,5.46
2019-03-25T00:38:58.703Z,5.05
2019-03-25T00:40:05.092Z,4.98
2019-03-25T00:41:12.403Z,5.30
2019-03-25T00:42:19.503Z,5.64
2019-03-25T00:43:26.929Z,5.99
2019-03-25T00:44:33.685Z,6.31
2019-03-25T00:45:40.834Z,6.71
2019-03-25T00:46:47.149Z,6.91
2019-03-25T00:47:53.816Z,6.75
2019-03-25T00:49:01.049Z,6.37
2019-03-25T00:50:08.994Z,5.96
2019-03-25T00:51:18.103Z,5.54
2019-03-25T00:52:24.604Z,5.16
2019-03-25T00:53:32.493Z,4.99
2019-03-25T00:54:49.627Z,5.23
2019-03-25T00:55:47.798Z,5.67
2019-03-25T00:56:54.340Z,6.12
2019-03-25T00:58:01.596Z,6.55
2019-03-25T00:59:08.597Z,6.81
2019-03-25T01:00:17.562Z,6.64
2019-03-25T01:01:24.845Z,6.27
2019-03-25T01:02:31.644Z,5.84
2019-03-25T01:03:40.028Z,5.40
2019-03-25T01:04:48.905Z,5.02
2019-03-25T01:05:55.649Z,5.04
2019-03-25T01:07:03.609Z,5.47
2019-03-25T01:08:10.439Z,5.89
2019-03-25T01:09:16.666Z,6.29
2019-03-25T01:10:22.965Z,6.54
2019-03-25T01:11:30.766Z,6.47
2019-03-25T01:12:36.949Z,6.10
2019-03-25T01:13:43.799Z,5.67
2019-03-25T01:14:50.879Z,5.22
2019-03-25T01:15:57.969Z,4.94
2019-03-25T01:17:05.309Z,5.13
2019-03-25T01:18:16.809Z,5.50
2019-03-25T01:19:19.988Z,5.84
2019-03-25T01:20:27.481Z,6.17
2019-03-25T01:21:35.126Z,6.47
2019-03-25T01:22:44.099Z,6.57
2019-03-25T01:23:51.079Z,6.23
2019-03-25T01:25:02.161Z,5.81
2019-03-25T01:26:06.631Z,5.36
2019-03-25T01:27:14.100Z,5.02
2019-03-25T01:28:21.150Z,5.08
2019-03-25T01:29:30.287Z,5.46
2019-03-25T01:30:37.872Z,5.92
2019-03-25T01:31:45.449Z,6.31
2019-03-25T01:32:53.727Z,6.65
2019-03-25T01:34:00.722Z,6.81
2019-03-25T01:35:07.738Z,6.61
2019-03-25T01:36:15.481Z,6.19
2019-03-25T01:37:24.124Z,5.79
2019-03-25T01:38:31.315Z,5.33
2019-03-25T01:39:38.074Z,5.06
2019-03-25T01:40:44.696Z,5.19
2019-03-25T01:41:51.913Z,5.56
2019-03-25T01:43:00.041Z,5.57
2019-03-25T01:44:07.354Z,5.30
2019-03-25T01:45:14.923Z,5.02
2019-03-25T01:46:21.529Z,5.16
2019-03-25T01:47:28.666Z,5.47
2019-03-25T01:48:35.325Z,5.91
2019-03-25T01:49:42.844Z,6.26
2019-03-25T01:50:49.814Z,6.51
2019-03-25T01:51:57.015Z,6.34
2019-03-25T01:53:03.564Z,5.99
2019-03-25T01:54:12.176Z,5.51
2019-03-25T01:55:19.652Z,5.06
2019-03-25T01:56:26.786Z,4.87
2019-03-25T01:57:35.186Z,5.08
2019-03-25T01:58:41.994Z,5.43
2019-03-25T01:59:49.151Z,5.79
2019-03-25T02:00:56.548Z,6.16
2019-03-25T02:02:03.659Z,6.45
2019-03-25T02:03:11.776Z,6.29
2019-03-25T02:04:21.149Z,5.94
2019-03-25T02:05:28.819Z,5.47
2019-03-25T02:06:35.359Z,5.09
2019-03-25T02:07:41.856Z,5.02
2019-03-25T02:08:49.179Z,5.30
2019-03-25T02:09:55.683Z,5.68
2019-03-25T02:11:02.864Z,5.98
2019-03-25T02:12:09.499Z,6.09
2019-03-25T02:13:16.993Z,5.89
2019-03-25T02:14:23.392Z,5.46
2019-03-25T02:15:31.432Z,5.08
2019-03-25T02:16:39.422Z,5.02
2019-03-25T02:17:47.052Z,5.26
2019-03-25T02:18:54.046Z,5.46
2019-03-25T02:20:00.830Z,5.36
2019-03-25T02:21:09.056Z,5.08
2019-03-25T02:22:15.276Z,5.04
2019-03-25T02:23:21.517Z,5.32
2019-03-25T02:24:28.626Z,5.49
2019-03-25T02:25:36.614Z,5.27
2019-03-25T02:26:43.538Z,4.98
2019-03-25T02:27:50.391Z,5.09
2019-03-25T02:28:57.550Z,5.34
2019-03-25T02:30:05.257Z,5.39
2019-03-25T02:31:12.577Z,5.13
2019-03-25T02:32:19.263Z,4.96
2019-03-25T02:33:25.995Z,5.20
2019-03-25T02:34:33.052Z,5.41
2019-03-25T02:35:40.929Z,5.33
2019-03-25T02:36:47.886Z,5.06
2019-03-25T02:37:55.756Z,5.09
2019-03-25T02:39:02.511Z,5.34
2019-03-25T02:40:13.037Z,5.44
2019-03-25T02:41:21.757Z,5.19
2019-03-25T02:42:29.020Z,5.08
2019-03-25T02:43:35.344Z,5.22
2019-03-25T02:44:44.076Z,5.43
2019-03-25T02:45:50.678Z,5.36
2019-03-25T02:46:57.092Z,5.08
2019-03-25T02:48:04.677Z,5.06
2019-03-25T02:49:11.215Z,5.34
2019-03-25T02:50:17.937Z,5.63
2019-03-25T02:51:25.233Z,5.82
2019-03-25T02:52:32.008Z,5.66
2019-03-25T02:53:38.954Z,5.29
2019-03-25T02:54:47.747Z,4.95
2019-03-25T02:55:54.327Z,5.04
2019-03-25T02:57:01.125Z,5.37
2019-03-25T02:58:07.030Z,5.50
2019-03-25T02:59:14.990Z,5.30
2019-03-25T03:00:31.806Z,5.02
2019-03-25T03:01:39.101Z,5.05
2019-03-25T03:02:45.882Z,5.33
2019-03-25T03:03:52.637Z,5.41
2019-03-25T03:04:59.479Z,5.18
2019-03-25T03:06:06.297Z,4.99
2019-03-25T03:07:15.037Z,5.16
2019-03-25T03:08:21.882Z,5.39
2019-03-25T03:09:29.589Z,5.27
2019-03-25T03:10:38.547Z,4.98
2019-03-25T03:11:45.023Z,4.91
2019-03-25T03:12:52.146Z,5.09
2019-03-25T03:13:59.479Z,5.39
2019-03-25T03:15:08.680Z,5.46
2019-03-25T03:16:16.160Z,5.18
2019-03-25T03:17:25.290Z,5.02
2019-03-25T03:18:32.165Z,5.23
2019-03-25T03:19:38.702Z,5.47
2019-03-25T03:20:47.246Z,5.37
2019-03-25T03:21:54.665Z,5.08
2019-03-25T03:23:01.444Z,5.06
2019-03-25T03:24:08.177Z,5.39
2019-03-25T03:25:14.358Z,5.50
2019-03-25T03:26:20.949Z,5.29
2019-03-25T03:27:30.086Z,5.04
2019-03-25T03:28:37.856Z,5.15
2019-03-25T03:29:44.377Z,5.43
2019-03-25T03:30:53.833Z,5.43
2019-03-25T03:32:00.836Z,5.11
2019-03-25T03:33:08.008Z,5.04
2019-03-25T03:34:14.906Z,5.27
2019-03-25T03:35:23.928Z,5.50
2019-03-25T03:36:30.722Z,5.34
2019-03-25T03:37:36.786Z,5.04
2019-03-25T03:38:43.414Z,5.01
2019-03-25T03:39:49.756Z,5.33
2019-03-25T03:40:56.253Z,5.50
2019-03-25T03:42:04.051Z,5.34
2019-03-25T03:43:11.293Z,5.04
2019-03-25T03:44:18.624Z,5.08
2019-03-25T03:45:25.940Z,5.34
2019-03-25T03:46:33.055Z,5.49
2019-03-25T03:47:40.008Z,5.24
2019-03-25T03:48:46.235Z,4.99
2019-03-25T03:49:53.540Z,5.11
2019-03-25T03:51:00.544Z,5.37
2019-03-25T03:52:06.864Z,5.40
2019-03-25T03:53:13.900Z,5.16
2019-03-25T03:54:22.738Z,5.01
2019-03-25T03:55:30.356Z,5.18
2019-03-25T03:56:37.716Z,5.46
2019-03-25T03:57:44.431Z,5.36
2019-03-25T03:58:51.631Z,5.08
2019-03-25T03:59:59.615Z,5.01
2019-03-25T04:01:06.695Z,5.26
2019-03-25T04:02:13.802Z,5.41
2019-03-25T04:03:21.924Z,5.26
2019-03-25T04:04:28.964Z,4.96
2019-03-25T04:05:36.011Z,4.98
2019-03-25T04:06:43.032Z,5.18
2019-03-25T04:07:50.196Z,5.39
2019-03-25T04:08:57.894Z,5.22
2019-03-25T04:10:05.868Z,5.01
2019-03-25T04:11:12.991Z,5.05
2019-03-25T04:12:22.046Z,5.30
2019-03-25T04:13:37.410Z,5.39
2019-03-25T04:14:45.388Z,5.06
2019-03-25T04:15:52.090Z,4.94
2019-03-25T04:16:59.783Z,5.04
2019-03-25T04:18:06.267Z,5.27
2019-03-25T04:19:12.902Z,5.41
2019-03-25T04:20:19.336Z,5.22
2019-03-25T04:21:26.510Z,4.99
2019-03-25T04:22:33.347Z,5.02
2019-03-25T04:23:40.619Z,5.27
2019-03-25T04:24:47.632Z,5.46
2019-03-25T04:25:54.063Z,5.29
2019-03-25T04:27:00.393Z,4.99
2019-03-25T04:28:07.804Z,4.99
2019-03-25T04:29:16.211Z,5.30
2019-03-25T04:30:23.636Z,5.47
2019-03-25T04:31:29.969Z,5.29
2019-03-25T04:32:37.014Z,5.01
2019-03-25T04:33:43.615Z,5.04
2019-03-25T04:34:49.850Z,5.24
2019-03-25T04:35:57.081Z,5.44
2019-03-25T04:37:04.443Z,5.32
2019-03-25T04:38:12.677Z,5.04
2019-03-25T04:39:19.890Z,5.05
2019-03-25T04:40:26.653Z,5.34
2019-03-25T04:41:33.540Z,5.46
2019-03-25T04:42:40.990Z,5.24
2019-03-25T04:43:47.751Z,5.02
2019-03-25T04:44:54.554Z,5.19
2019-03-25T04:46:01.398Z,5.43
2019-03-25T04:47:08.276Z,5.36
2019-03-25T04:48:15.190Z,5.08
2019-03-25T04:49:23.020Z,5.06
2019-03-25T04:50:29.937Z,5.34
2019-03-25T04:51:38.495Z,5.44
2019-03-25T04:52:45.772Z,5.24
2019-03-25T04:53:53.142Z,5.04
2019-03-25T04:55:00.945Z,5.13
2019-03-25T04:56:07.585Z,5.40
2019-03-25T04:57:14.278Z,5.36
2019-03-25T04:58:21.494Z,5.12
2019-03-25T04:59:27.804Z,5.08
2019-03-25T05:00:38.762Z,5.37
2019-03-25T05:01:45.238Z,5.73
2019-03-25T05:02:51.833Z,6.12
2019-03-25T05:03:58.355Z,6.58
2019-03-25T05:05:05.421Z,6.84
2019-03-25T05:06:11.983Z,6.74
2019-03-25T05:07:38.965Z,6.43
2019-03-25T05:08:45.716Z,5.91
2019-03-25T05:09:52.148Z,5.50
2019-03-25T05:10:58.561Z,5.11
2019-03-25T05:12:05.803Z,4.99
2019-03-25T05:13:12.592Z,5.27
2019-03-25T05:14:20.742Z,5.70
2019-03-25T05:15:27.451Z,6.09
2019-03-25T05:16:34.383Z,6.54
2019-03-25T05:17:40.403Z,6.92
2019-03-25T05:18:47.567Z,7.14
2019-03-25T05:19:54.115Z,6.93
2019-03-25T05:21:00.926Z,6.55
2019-03-25T05:22:07.513Z,6.09
2019-03-25T05:23:13.821Z,5.61
2019-03-25T05:24:20.941Z,5.19
2019-03-25T05:25:27.145Z,5.04
2019-03-25T05:26:34.066Z,5.29
2019-03-25T05:27:43.282Z,5.68
2019-03-25T05:28:50.565Z,6.22
2019-03-25T05:29:57.178Z,6.67
2019-03-25T05:31:03.522Z,7.09
2019-03-25T05:32:10.068Z,7.37
2019-03-25T05:33:16.489Z,7.27
2019-03-25T05:34:23.052Z,6.92
2019-03-25T05:35:29.622Z,6.57
2019-03-25T05:36:35.986Z,6.17
2019-03-25T05:37:43.058Z,5.75
2019-03-25T05:38:50.473Z,5.41
2019-03-25T05:39:58.009Z,5.12
2019-03-25T05:41:05.114Z,5.19
2019-03-25T05:42:17.301Z,5.57
2019-03-25T05:43:24.969Z,6.12
2019-03-25T05:44:33.738Z,6.68
2019-03-25T05:45:40.947Z,7.17
2019-03-25T05:46:47.485Z,7.58
2019-03-25T05:47:54.145Z,7.88
2019-03-25T05:49:00.989Z,7.72
2019-03-25T05:50:10.097Z,7.47
2019-03-25T05:51:18.518Z,7.09
2019-03-25T05:52:25.761Z,6.69
2019-03-25T05:53:32.335Z,6.39
2019-03-25T05:54:39.387Z,6.08
2019-03-25T05:55:46.367Z,5.77
2019-03-25T05:57:02.476Z,5.53
2019-03-25T05:58:05.360Z,5.27
2019-03-25T05:59:12.159Z,5.16
2019-03-25T06:00:22.291Z,5.46
2019-03-25T06:01:29.532Z,6.05
2019-03-25T06:02:36.140Z,6.64
2019-03-25T06:03:42.689Z,7.14
2019-03-25T06:04:49.059Z,7.66
2019-03-25T06:05:56.131Z,8.09
2019-03-25T06:07:02.681Z,8.31
2019-03-25T06:08:09.658Z,8.17
2019-03-25T06:09:16.794Z,7.88
2019-03-25T06:10:25.310Z,7.49
2019-03-25T06:11:33.232Z,7.14
2019-03-25T06:12:43.478Z,6.81
2019-03-25T06:13:53.721Z,6.48
2019-03-25T06:15:02.225Z,6.20
2019-03-25T06:16:13.161Z,5.95
2019-03-25T06:17:26.790Z,5.70
2019-03-25T06:18:37.508Z,5.41
2019-03-25T06:19:47.151Z,5.18
2019-03-25T06:20:54.565Z,5.22
2019-03-25T06:22:01.999Z,5.70
2019-03-25T06:23:14.942Z,6.34
2019-03-25T06:24:21.580Z,7.02
2019-03-25T06:25:28.059Z,7.54
2019-03-25T06:26:35.389Z,7.96
2019-03-25T06:27:43.222Z,8.17
2019-03-25T06:28:49.763Z,8.04
2019-03-25T06:29:56.264Z,7.81
2019-03-25T06:31:05.036Z,7.47
2019-03-25T06:32:12.272Z,7.10
2019-03-25T06:33:19.649Z,6.81
2019-03-25T06:34:26.799Z,6.48
2019-03-25T06:35:33.625Z,6.16
2019-03-25T06:36:40.029Z,5.89
2019-03-25T06:37:46.871Z,5.68
2019-03-25T06:38:53.995Z,5.49
2019-03-25T06:40:00.554Z,5.27
2019-03-25T06:41:07.955Z,5.18
2019-03-25T06:42:16.665Z,5.56
2019-03-25T06:43:25.274Z,6.20
2019-03-25T06:44:33.149Z,6.86
2019-03-25T06:45:39.940Z,7.48
2019-03-25T06:46:46.390Z,7.94
2019-03-25T06:47:53.830Z,8.39
2019-03-25T06:49:01.563Z,8.69
2019-03-25T06:50:10.197Z,8.62
2019-03-25T06:51:16.877Z,8.35
2019-03-25T06:52:23.516Z,8.03
2019-03-25T06:53:29.883Z,7.66
2019-03-25T06:54:37.221Z,7.40
2019-03-25T06:55:43.551Z,7.06
2019-03-25T06:56:54.274Z,6.84
2019-03-25T06:58:03.950Z,6.48
2019-03-25T06:59:11.394Z,6.20
2019-03-25T07:00:18.709Z,5.92
2019-03-25T07:01:24.732Z,5.86
2019-03-25T07:02:31.639Z,6.17
2019-03-25T07:03:38.580Z,6.74
2019-03-25T07:04:44.748Z,7.29
2019-03-25T07:05:50.802Z,7.74
2019-03-25T07:06:56.802Z,8.16
2019-03-25T07:08:03.371Z,8.53
2019-03-25T07:09:10.302Z,8.89
2019-03-25T07:10:32.550Z,9.12
2019-03-25T07:11:39.422Z,9.14
2019-03-25T07:12:45.411Z,8.87
2019-03-25T07:13:51.574Z,8.44
2019-03-25T07:14:57.709Z,7.97
2019-03-25T07:16:03.859Z,7.55
2019-03-25T07:17:10.623Z,7.19
2019-03-25T07:18:18.949Z,6.89
2019-03-25T07:19:25.631Z,6.71
2019-03-25T07:20:32.669Z,6.92
2019-03-25T07:21:39.189Z,7.27
2019-03-25T07:22:46.349Z,7.63
2019-03-25T07:23:53.812Z,8.00
2019-03-25T07:24:59.833Z,8.41
2019-03-25T07:26:07.235Z,8.79
2019-03-25T07:27:14.660Z,9.07
2019-03-25T07:28:20.952Z,9.34
2019-03-25T07:29:27.792Z,9.62
2019-03-25T07:30:34.822Z,9.87
2019-03-25T07:31:40.903Z,10.07
2019-03-25T07:32:48.869Z,9.93
2019-03-25T07:33:56.132Z,9.60
2019-03-25T07:35:02.649Z,9.28
2019-03-25T07:36:09.870Z,8.96
2019-03-25T07:37:15.992Z,8.63
2019-03-25T07:38:22.652Z,8.32
2019-03-25T07:39:28.950Z,8.04
2019-03-25T07:40:34.922Z,7.76
2019-03-25T07:41:41.949Z,7.44
2019-03-25T07:42:47.830Z,7.33
2019-03-25T07:43:55.270Z,7.58
2019-03-25T07:45:02.822Z,7.99
2019-03-25T07:46:08.962Z,8.47
2019-03-25T07:47:16.250Z,8.96
2019-03-25T07:48:22.749Z,9.38
2019-03-25T07:49:29.042Z,9.76
2019-03-25T07:50:35.467Z,10.10
2019-03-25T07:51:42.060Z,10.29
2019-03-25T07:52:48.353Z,10.57
2019-03-25T07:53:55.436Z,10.73
2019-03-25T07:55:03.156Z,10.55
2019-03-25T07:56:11.700Z,10.28
2019-03-25T07:57:18.481Z,9.90
2019-03-25T07:58:24.841Z,9.56
2019-03-25T07:59:31.421Z,9.21
2019-03-25T08:00:37.901Z,8.90
2019-03-25T08:01:45.583Z,8.63
2019-03-25T08:02:53.796Z,8.32
2019-03-25T08:04:00.430Z,8.07
2019-03-25T08:05:08.891Z,8.03
2019-03-25T08:06:16.348Z,8.45
2019-03-25T08:07:32.968Z,9.06
2019-03-25T08:08:40.453Z,9.69
2019-03-25T08:09:46.468Z,10.19
2019-03-25T08:10:53.845Z,10.62
2019-03-25T08:12:00.643Z,11.01
2019-03-25T08:13:06.647Z,11.41
2019-03-25T08:14:13.540Z,11.61
2019-03-25T08:15:21.133Z,11.59
2019-03-25T08:16:27.163Z,11.33
2019-03-25T08:17:33.930Z,11.05
2019-03-25T08:18:41.023Z,10.76
2019-03-25T08:19:47.583Z,10.45
2019-03-25T08:20:54.673Z,10.19
2019-03-25T08:22:00.520Z,9.97
2019-03-25T08:23:09.250Z,9.72
2019-03-25T08:24:17.355Z,9.49
2019-03-25T08:25:24.584Z,9.28
2019-03-25T08:26:42.660Z,9.10
2019-03-25T08:27:59.489Z,8.87
2019-03-25T08:28:59.951Z,8.75
2019-03-25T08:30:09.195Z,8.83
2019-03-25T08:31:15.450Z,9.28
2019-03-25T08:32:22.571Z,9.86
2019-03-25T08:33:30.791Z,10.49
2019-03-25T08:34:36.980Z,11.04
2019-03-25T08:35:45.107Z,11.56
2019-03-25T08:36:51.110Z,11.94
2019-03-25T08:37:59.223Z,11.98
2019-03-25T08:39:07.570Z,11.81
2019-03-25T08:40:13.734Z,11.59
2019-03-25T08:41:20.674Z,11.36
2019-03-25T08:42:27.303Z,11.16
2019-03-25T08:43:33.533Z,10.94
2019-03-25T08:44:40.253Z,10.79
2019-03-25T08:45:47.033Z,10.60
2019-03-25T08:46:53.745Z,10.43
2019-03-25T08:48:01.183Z,10.25
2019-03-25T08:49:07.813Z,10.08
2019-03-25T08:50:38.066Z,9.93
2019-03-25T08:51:47.604Z,9.77
2019-03-25T08:52:54.381Z,9.66
2019-03-25T08:54:02.775Z,9.52
2019-03-25T08:55:09.313Z,9.41
2019-03-25T08:56:15.514Z,9.28
2019-03-25T08:57:21.724Z,9.10
2019-03-25T08:58:28.111Z,8.93
2019-03-25T08:59:36.341Z,8.79
2019-03-25T09:00:42.790Z,8.67
2019-03-25T09:01:49.424Z,8.59
2019-03-25T09:02:55.785Z,8.58
2019-03-25T09:04:01.704Z,8.70
2019-03-25T09:05:09.353Z,9.27
2019-03-25T09:06:15.982Z,10.01
2019-03-25T09:07:22.263Z,10.76
2019-03-25T09:08:28.383Z,11.38
2019-03-25T09:09:35.262Z,11.88
2019-03-25T09:10:42.353Z,11.99
2019-03-25T09:11:48.605Z,11.87
2019-03-25T09:12:54.467Z,11.70
2019-03-25T09:14:00.531Z,11.43
2019-03-25T09:15:08.942Z,11.15
2019-03-25T09:16:14.813Z,10.84
2019-03-25T09:17:20.766Z,10.59
2019-03-25T09:18:26.822Z,10.37
2019-03-25T09:19:32.845Z,10.17
2019-03-25T09:20:39.125Z,10.00
2019-03-25T09:21:45.712Z,9.83
2019-03-25T09:22:51.761Z,9.66
2019-03-25T09:23:57.596Z,9.53
2019-03-25T09:25:03.974Z,9.42
2019-03-25T09:26:10.571Z,9.35
2019-03-25T09:27:16.934Z,9.25
2019-03-25T09:28:24.454Z,9.12
2019-03-25T09:29:33.185Z,8.96
2019-03-25T09:30:58.956Z,8.84
2019-03-25T09:32:06.201Z,8.73
2019-03-25T09:33:12.664Z,8.72
2019-03-25T09:34:19.102Z,8.65
2019-03-25T09:35:25.818Z,8.62
2019-03-25T09:36:32.101Z,8.58
2019-03-25T09:37:39.185Z,8.53
2019-03-25T09:38:45.494Z,8.53
2019-03-25T09:39:52.112Z,8.51
2019-03-25T09:40:57.855Z,8.44
2019-03-25T09:42:03.783Z,8.38
2019-03-25T09:43:09.752Z,8.35
2019-03-25T09:44:15.669Z,8.37
2019-03-25T09:45:22.211Z,8.35
2019-03-25T09:46:28.154Z,8.35
2019-03-25T09:47:34.351Z,8.39
2019-03-25T09:48:40.404Z,8.39
2019-03-25T09:49:46.455Z,8.44
2019-03-25T09:50:52.314Z,8.47
2019-03-25T09:51:58.975Z,8.53
2019-03-25T09:53:06.484Z,8.53
2019-03-25T09:54:12.421Z,8.58
2019-03-25T09:55:18.504Z,8.59
2019-03-25T09:56:25.123Z,8.63
2019-03-25T09:57:31.544Z,8.66
2019-03-25T09:58:37.744Z,8.72
2019-03-25T09:59:44.574Z,8.76
2019-03-25T10:00:52.140Z,8.80
2019-03-25T10:01:58.333Z,8.80
2019-03-25T10:03:05.933Z,8.77
2019-03-25T10:04:12.334Z,8.77
2019-03-25T10:05:19.054Z,8.80
2019-03-25T10:06:25.632Z,8.86
2019-03-25T10:07:32.154Z,8.83
2019-03-25T10:08:38.901Z,8.92
2019-03-25T10:09:45.858Z,8.89
2019-03-25T10:10:54.832Z,8.87
2019-03-25T10:12:00.824Z,8.84
2019-03-25T10:13:06.674Z,8.86
2019-03-25T10:14:12.604Z,8.86
2019-03-25T10:15:19.263Z,8.87
2019-03-25T10:16:25.371Z,8.92
2019-03-25T10:17:32.754Z,8.93
2019-03-25T10:18:39.864Z,8.97
2019-03-25T10:19:46.044Z,8.94
2019-03-25T10:20:52.034Z,8.99
2019-03-25T10:21:59.522Z,8.99
2019-03-25T10:23:05.355Z,9.01
2019-03-25T10:24:11.462Z,9.04
2019-03-25T10:25:17.782Z,9.03
2019-03-25T10:26:23.942Z,8.99
2019-03-25T10:27:30.385Z,8.92
2019-03-25T10:28:48.025Z,8.89
2019-03-25T10:29:45.135Z,8.86
2019-03-25T10:30:52.067Z,8.82
2019-03-25T10:31:59.452Z,8.80
2019-03-25T10:33:06.591Z,8.79
2019-03-25T10:34:13.134Z,8.79
2019-03-25T10:35:19.805Z,8.80
2019-03-25T10:36:26.954Z,8.86
2019-03-25T10:37:32.804Z,8.93
2019-03-25T10:38:39.824Z,9.03
2019-03-25T10:39:47.904Z,9.14
2019-03-25T10:40:54.709Z,9.25
2019-03-25T10:42:00.689Z,9.31
2019-03-25T10:43:06.561Z,9.41
2019-03-25T10:44:13.211Z,9.39
2019-03-25T10:45:19.411Z,9.45
2019-03-25T10:46:25.391Z,9.52
2019-03-25T10:47:31.434Z,9.60
2019-03-25T10:48:38.991Z,9.66
2019-03-25T10:49:44.993Z,9.66
2019-03-25T10:50:52.248Z,9.66
2019-03-25T10:51:59.624Z,9.59
2019-03-25T10:53:05.562Z,9.50
2019-03-25T10:54:12.135Z,9.48
2019-03-25T10:55:18.034Z,9.48
2019-03-25T10:56:24.502Z,9.48
2019-03-25T10:57:30.832Z,9.49
2019-03-25T10:58:36.865Z,9.43
2019-03-25T10:59:42.828Z,9.42
2019-03-25T11:00:49.096Z,9.37
2019-03-25T11:01:55.752Z,9.38
2019-03-25T11:03:01.995Z,9.31
2019-03-25T11:04:08.861Z,9.28
2019-03-25T11:05:15.305Z,9.27
2019-03-25T11:06:23.431Z,9.15
2019-03-25T11:07:29.673Z,9.07
2019-03-25T11:08:36.976Z,9.01
2019-03-25T11:09:43.752Z,8.92
2019-03-25T11:10:50.145Z,8.84
2019-03-25T11:11:56.822Z,8.75
2019-03-25T11:13:03.005Z,8.66
2019-03-25T11:14:09.052Z,8.62
2019-03-25T11:15:17.926Z,8.55
2019-03-25T11:16:24.155Z,8.48
2019-03-25T11:17:30.196Z,8.42
2019-03-25T11:18:36.335Z,8.39
2019-03-25T11:19:42.512Z,8.34
2019-03-25T11:20:48.672Z,8.31
2019-03-25T11:21:54.730Z,8.27
2019-03-25T11:23:00.863Z,8.24
2019-03-25T11:24:07.195Z,8.20
2019-03-25T11:25:13.503Z,8.16
2019-03-25T11:26:20.865Z,8.17
2019-03-25T11:27:27.472Z,8.13
2019-03-25T11:28:33.362Z,8.11
2019-03-25T11:29:40.745Z,8.04
2019-03-25T11:30:55.393Z,8.00
2019-03-25T11:32:03.264Z,7.90
2019-03-25T11:33:09.695Z,7.79
2019-03-25T11:34:15.886Z,7.65
2019-03-25T11:35:22.576Z,7.57
2019-03-25T11:36:29.055Z,7.88
2019-03-25T11:37:35.263Z,8.38
2019-03-25T11:38:41.444Z,8.90
2019-03-25T11:39:47.375Z,9.39
2019-03-25T11:40:54.597Z,9.86
2019-03-25T11:42:00.686Z,10.25
2019-03-25T11:43:06.472Z,10.64
2019-03-25T11:44:12.365Z,10.92
2019-03-25T11:45:18.392Z,11.18
2019-03-25T11:46:24.783Z,11.46
2019-03-25T11:47:34.244Z,11.70
2019-03-25T11:48:40.175Z,11.84
2019-03-25T11:49:46.343Z,11.60
2019-03-25T11:50:52.254Z,11.12
2019-03-25T11:51:58.445Z,10.62
2019-03-25T11:53:04.602Z,10.08
2019-03-25T11:54:10.553Z,9.66
2019-03-25T11:55:17.855Z,9.35
2019-03-25T11:56:25.353Z,9.46
2019-03-25T11:57:31.526Z,9.79
2019-03-25T11:58:39.015Z,10.17
2019-03-25T11:59:45.872Z,10.55
2019-03-25T12:00:52.715Z,10.87
2019-03-25T12:02:00.723Z,11.16
2019-03-25T12:03:08.172Z,11.49
2019-03-25T12:04:14.275Z,11.74
2019-03-25T12:05:20.587Z,11.98
2019-03-25T12:06:28.346Z,12.14
2019-03-25T12:07:34.684Z,11.89
2019-03-25T12:08:40.916Z,11.47
2019-03-25T12:09:48.112Z,10.97
2019-03-25T12:10:55.014Z,10.45
2019-03-25T12:12:01.783Z,9.98
2019-03-25T12:13:07.665Z,9.62
2019-03-25T12:14:14.263Z,9.28
2019-03-25T12:15:20.260Z,8.96
2019-03-25T12:16:26.202Z,8.63
2019-03-25T12:17:32.216Z,8.51
2019-03-25T12:18:38.387Z,8.84
2019-03-25T12:19:44.565Z,9.38
2019-03-25T12:20:50.513Z,9.94
2019-03-25T12:21:56.445Z,10.47
2019-03-25T12:23:02.966Z,10.97
2019-03-25T12:24:09.449Z,11.29
2019-03-25T12:25:15.619Z,11.42
2019-03-25T12:26:23.375Z,11.22
2019-03-25T12:27:29.574Z,10.81
2019-03-25T12:28:37.386Z,10.37
2019-03-25T12:29:44.302Z,9.93
2019-03-25T12:30:52.003Z,9.53
2019-03-25T12:31:58.056Z,9.22
2019-03-25T12:33:04.592Z,8.94
2019-03-25T12:34:10.474Z,8.65
2019-03-25T12:35:16.996Z,8.42
2019-03-25T12:36:23.833Z,8.34
2019-03-25T12:37:29.955Z,8.70
2019-03-25T12:38:36.881Z,9.25
2019-03-25T12:39:43.952Z,9.82
2019-03-25T12:40:50.515Z,10.28
2019-03-25T12:41:58.319Z,10.66
2019-03-25T12:43:04.187Z,11.02
2019-03-25T12:44:10.098Z,11.32
2019-03-25T12:45:17.737Z,11.50
2019-03-25T12:46:23.645Z,11.32
2019-03-25T12:47:30.216Z,11.02
2019-03-25T12:48:36.214Z,10.71
2019-03-25T12:49:42.286Z,10.37
2019-03-25T12:50:48.424Z,10.02
2019-03-25T12:51:54.757Z,9.72
2019-03-25T12:53:00.705Z,9.41
2019-03-25T12:54:06.750Z,9.07
2019-03-25T12:55:12.953Z,8.73
2019-03-25T12:56:19.593Z,8.56
2019-03-25T12:57:26.026Z,8.79
2019-03-25T12:58:32.086Z,9.20
2019-03-25T12:59:41.561Z,9.63
2019-03-25T13:00:46.848Z,9.98
2019-03-25T13:01:54.031Z,10.28
2019-03-25T13:03:01.306Z,10.50
2019-03-25T13:04:07.541Z,10.69
2019-03-25T13:05:15.384Z,10.84
2019-03-25T13:06:22.301Z,10.83
2019-03-25T13:07:28.352Z,10.53
2019-03-25T13:08:35.100Z,10.14
2019-03-25T13:09:41.781Z,9.67
2019-03-25T13:10:47.742Z,9.24
2019-03-25T13:11:54.131Z,8.84
2019-03-25T13:13:00.096Z,8.39
2019-03-25T13:14:06.040Z,8.20
2019-03-25T13:15:11.921Z,8.31
2019-03-25T13:16:19.128Z,8.65
2019-03-25T13:17:26.000Z,8.99
2019-03-25T13:18:31.808Z,9.31
2019-03-25T13:19:37.581Z,9.59
2019-03-25T13:20:44.869Z,9.90
2019-03-25T13:21:50.832Z,10.14
2019-03-25T13:22:56.602Z,10.33
2019-03-25T13:24:02.731Z,10.49
2019-03-25T13:25:09.442Z,10.63
2019-03-25T13:26:15.531Z,10.73
2019-03-25T13:27:22.332Z,10.92
2019-03-25T13:28:28.949Z,10.91
2019-03-25T13:29:35.862Z,10.56
2019-03-25T13:30:44.612Z,10.11
2019-03-25T13:31:51.211Z,9.57
2019-03-25T13:32:59.052Z,9.04
2019-03-25T13:34:09.311Z,8.53
2019-03-25T13:35:16.777Z,8.10
2019-03-25T13:36:26.392Z,7.85
2019-03-25T13:37:32.172Z,7.96
2019-03-25T13:38:39.165Z,8.24
2019-03-25T13:39:54.252Z,8.63
2019-03-25T13:41:01.276Z,8.97
2019-03-25T13:42:07.562Z,9.22
2019-03-25T13:43:13.650Z,9.48
2019-03-25T13:44:19.589Z,9.73
2019-03-25T13:45:25.470Z,9.93
2019-03-25T13:46:31.239Z,10.10
2019-03-25T13:47:37.051Z,10.29
2019-03-25T13:48:42.951Z,10.39
2019-03-25T13:49:48.865Z,10.47
2019-03-25T13:50:54.732Z,10.52
2019-03-25T13:52:00.527Z,10.24
2019-03-25T13:53:06.403Z,9.76
2019-03-25T13:54:13.146Z,9.29
2019-03-25T13:55:19.652Z,8.86
2019-03-25T13:56:26.604Z,8.42
2019-03-25T13:57:33.491Z,8.11
2019-03-25T13:58:40.242Z,8.22
2019-03-25T13:59:47.132Z,8.55
2019-03-25T14:00:54.683Z,8.92
2019-03-25T14:02:00.696Z,9.29
2019-03-25T14:03:07.844Z,9.59
2019-03-25T14:04:15.673Z,9.94
2019-03-25T14:05:22.632Z,10.25
2019-03-25T14:06:28.862Z,10.52
2019-03-25T14:07:35.423Z,10.76
2019-03-25T14:08:44.534Z,10.94
2019-03-25T14:09:52.022Z,11.15
2019-03-25T14:10:58.242Z,11.35
2019-03-25T14:12:07.032Z,11.42
2019-03-25T14:13:13.593Z,11.16
2019-03-25T14:14:19.952Z,10.73
2019-03-25T14:15:27.922Z,10.26
2019-03-25T14:16:34.484Z,9.80
2019-03-25T14:17:40.763Z,9.42
2019-03-25T14:18:49.682Z,9.01
2019-03-25T14:19:56.443Z,8.73
2019-03-25T14:21:04.003Z,8.73
2019-03-25T14:22:10.932Z,9.01
2019-03-25T14:23:38.442Z,9.39
2019-03-25T14:24:46.395Z,9.79
2019-03-25T14:25:52.653Z,10.08
2019-03-25T14:26:59.955Z,10.33
2019-03-25T14:28:06.662Z,10.53
2019-03-25T14:29:14.293Z,10.73
2019-03-25T14:30:21.805Z,10.95
2019-03-25T14:31:28.230Z,11.16
2019-03-25T14:32:35.822Z,11.41
2019-03-25T14:33:42.432Z,11.46
2019-03-25T14:34:48.943Z,11.18
2019-03-25T14:35:56.351Z,10.77
2019-03-25T14:37:03.539Z,10.17
2019-03-25T14:38:10.324Z,9.67
2019-03-25T14:39:17.563Z,9.28
2019-03-25T14:40:25.566Z,8.89
2019-03-25T14:41:34.044Z,8.55
2019-03-25T14:42:42.484Z,8.42
2019-03-25T14:43:49.217Z,8.65
2019-03-25T14:44:56.930Z,9.04
2019-03-25T14:46:03.686Z,9.43
2019-03-25T14:47:12.024Z,9.82
2019-03-25T14:48:19.644Z,10.11
2019-03-25T14:49:26.305Z,10.37
2019-03-25T14:50:33.732Z,10.60